Time;durP1;ratioP1;P1;durP2;ratioP2;P2;SDS_P1;SDS_P2;PMS_P1;PMS_P2;Temp;Humidity;BMP_temperature;BMP_pressure;BME280_temperature;BME280_humidity;BME280_pressure;Samples;Min_cycle;Max_cycle;Signal;HPM_P1;HPM_P2
2023/08/15 00:01:36;;;;;;;8.60;7.40;;;19.20;99.90;;;;;;5050297;28;20432;-74
2023/08/15 00:04:02;;;;;;;9.23;6.38;;;19.40;99.90;;;;;;5047953;28;20048;-74
2023/08/15 00:06:28;;;;;;;9.85;6.40;;;19.20;99.90;;;;;;5054118;28;20411;-75
2023/08/15 00:08:54;;;;;;;9.75;7.15;;;19.30;99.90;;;;;;5052876;28;20127;-74
2023/08/15 00:11:21;;;;;;;11.88;7.30;;;19.00;99.90;;;;;;5051865;28;20401;-74
2023/08/15 00:13:46;;;;;;;8.02;7.10;;;18.90;99.90;;;;;;5056671;28;20408;-75
2023/08/15 00:16:12;;;;;;;12.02;7.28;;;18.90;99.90;;;;;;5054124;28;20040;-74
2023/08/15 00:18:37;;;;;;;12.10;7.50;;;19.10;99.90;;;;;;5046170;28;20556;-74
2023/08/15 00:21:03;;;;;;;10.52;8.32;;;18.80;99.90;;;;;;5033584;28;20570;-74
2023/08/15 00:23:29;;;;;;;12.95;7.53;;;18.90;99.90;;;;;;5054995;28;20041;-74
2023/08/15 00:25:54;;;;;;;11.13;7.13;;;18.80;99.90;;;;;;5052748;28;20058;-74
2023/08/15 00:28:20;;;;;;;8.27;7.25;;;19.10;99.90;;;;;;5051762;28;20039;-74
2023/08/15 00:30:45;;;;;;;9.32;7.47;;;18.70;99.90;;;;;;5049820;28;20025;-74
2023/08/15 00:33:11;;;;;;;9.90;7.80;;;18.80;99.90;;;;;;5050076;28;20111;-74
2023/08/15 00:35:36;;;;;;;13.10;7.57;;;18.80;99.90;;;;;;5036407;28;20086;-74
2023/08/15 00:38:02;;;;;;;10.68;7.82;;;19.10;99.90;;;;;;5051337;28;20045;-74
2023/08/15 00:40:28;;;;;;;12.80;8.85;;;18.60;99.90;;;;;;5050533;28;20029;-74
2023/08/15 00:42:53;;;;;;;13.18;8.15;;;19.00;99.90;;;;;;5050148;28;20037;-74
2023/08/15 00:45:19;;;;;;;12.20;8.82;;;18.60;99.90;;;;;;5052733;28;20029;-74
2023/08/15 00:47:44;;;;;;;11.23;7.88;;;18.60;99.90;;;;;;5049608;28;20094;-74
2023/08/15 00:50:10;;;;;;;13.80;8.00;;;18.70;99.90;;;;;;5047612;28;20388;-74
2023/08/15 00:52:36;;;;;;;9.32;7.35;;;18.80;99.90;;;;;;5055225;28;20048;-75
2023/08/15 00:55:03;;;;;;;11.80;7.65;;;18.60;99.90;;;;;;5065697;28;20496;-74
2023/08/15 00:57:29;;;;;;;15.02;8.38;;;18.80;99.90;;;;;;5050343;28;20041;-74
2023/08/15 00:59:55;;;;;;;13.15;7.80;;;18.60;99.90;;;;;;5049046;28;20086;-75
2023/08/15 01:02:21;;;;;;;13.60;8.10;;;18.70;99.90;;;;;;5054751;28;20412;-74
2023/08/15 01:04:47;;;;;;;10.45;8.38;;;18.90;99.90;;;;;;5039050;28;20078;-74
2023/08/15 01:07:12;;;;;;;11.02;8.68;;;18.40;99.90;;;;;;5054871;28;20045;-74
2023/08/15 01:09:38;;;;;;;10.18;8.63;;;18.70;99.90;;;;;;5054172;28;20043;-74
2023/08/15 01:12:28;;;;;;;10.30;8.20;;;18.70;99.90;;;;;;5072662;28;20032;-74
2023/08/15 01:15:04;;;;;;;15.52;8.32;;;18.60;99.90;;;;;;5048738;28;20511;-75
2023/08/15 01:17:36;;;;;;;14.10;9.05;;;18.60;99.90;;;;;;5052258;28;20055;-75
2023/08/15 01:20:11;;;;;;;12.95;9.02;;;18.70;99.90;;;;;;5046371;28;20029;-74
2023/08/15 01:22:46;;;;;;;11.63;8.77;;;18.50;99.90;;;;;;5048522;28;20064;-74
2023/08/15 01:25:12;;;;;;;13.65;8.95;;;18.40;99.90;;;;;;5051102;28;20044;-74
2023/08/15 01:27:37;;;;;;;10.00;8.95;;;18.80;99.90;;;;;;5045455;28;20042;-74
2023/08/15 01:30:03;;;;;;;13.10;10.32;;;18.40;99.90;;;;;;5047070;28;20054;-74
2023/08/15 01:32:50;;;;;;;15.38;10.20;;;18.80;99.90;;;;;;5035690;28;20098;-75
2023/08/15 01:35:38;;;;;;;13.15;8.60;;;18.50;99.90;;;;;;5052122;28;20041;-74
2023/08/15 01:38:14;;;;;;;13.32;8.63;;;18.30;99.90;;;;;;5046349;28;20041;-74
2023/08/15 01:40:41;;;;;;;13.95;9.07;;;18.30;99.90;;;;;;5049478;28;20029;-74
2023/08/15 01:43:13;;;;;;;12.18;8.55;;;18.60;99.90;;;;;;5070079;28;20068;-74
2023/08/15 01:45:38;;;;;;;10.63;8.45;;;18.80;99.90;;;;;;5049942;28;20040;-74
2023/08/15 01:48:04;;;;;;;15.05;9.02;;;18.50;99.90;;;;;;5049535;28;20139;-74
2023/08/15 01:50:30;;;;;;;12.93;8.93;;;18.30;99.90;;;;;;5036075;28;20492;-74
2023/08/15 01:52:55;;;;;;;12.90;9.80;;;18.50;99.90;;;;;;5049928;28;20044;-74
2023/08/15 01:55:21;;;;;;;13.23;8.88;;;18.50;99.90;;;;;;5070793;28;20048;-74
2023/08/15 01:57:47;;;;;;;15.65;9.43;;;18.60;99.90;;;;;;5052101;28;20121;-74
2023/08/15 02:00:12;;;;;;;10.70;9.18;;;18.40;99.90;;;;;;5050268;28;20049;-75
2023/08/15 02:02:38;;;;;;;13.23;9.70;;;18.50;99.90;;;;;;5066692;28;20033;-74
2023/08/15 02:05:04;;;;;;;15.80;10.30;;;18.50;99.90;;;;;;5052835;28;20480;-75
2023/08/15 02:07:29;;;;;;;14.93;9.50;;;18.60;99.90;;;;;;5068380;28;20146;-74
2023/08/15 02:09:55;;;;;;;13.88;9.48;;;18.60;99.90;;;;;;5048902;28;20115;-75
2023/08/15 02:12:20;;;;;;;12.30;10.02;;;18.30;99.90;;;;;;5049554;28;20047;-75
2023/08/15 02:14:46;;;;;;;16.40;9.98;;;18.50;99.90;;;;;;5049157;28;20556;-75
2023/08/15 02:17:11;;;;;;;15.30;10.18;;;18.60;99.90;;;;;;5050852;28;20600;-75
2023/08/15 02:19:37;;;;;;;17.02;11.50;;;18.40;99.90;;;;;;5052473;28;20049;-75
2023/08/15 02:22:03;;;;;;;16.23;9.75;;;18.50;99.90;;;;;;5050362;28;20124;-74
2023/08/15 02:24:29;;;;;;;13.65;9.60;;;18.60;99.90;;;;;;5052186;28;20044;-74
2023/08/15 02:26:55;;;;;;;13.93;9.95;;;18.40;99.90;;;;;;5048928;28;20041;-74
2023/08/15 02:29:20;;;;;;;13.20;9.55;;;18.30;99.90;;;;;;5046266;28;20128;-74
2023/08/15 02:31:47;;;;;;;21.48;11.77;;;18.20;99.90;;;;;;5046148;28;20033;-74
2023/08/15 02:34:16;;;;;;;15.15;10.48;;;18.50;99.90;;;;;;5037205;28;20051;-74
2023/08/15 02:36:43;;;;;;;15.90;10.98;;;18.30;99.90;;;;;;5049916;28;20041;-74
2023/08/15 02:39:08;;;;;;;15.00;10.52;;;18.40;99.90;;;;;;5052960;28;20040;-74
2023/08/15 02:41:34;;;;;;;15.32;10.52;;;18.20;99.90;;;;;;5049659;28;20406;-74
2023/08/15 02:44:00;;;;;;;14.80;10.85;;;18.20;99.90;;;;;;5053671;28;20032;-74
2023/08/15 02:46:28;;;;;;;13.98;10.13;;;18.20;99.90;;;;;;5028437;28;20047;-74
2023/08/15 02:48:53;;;;;;;16.73;10.50;;;18.50;99.90;;;;;;5030478;28;20517;-74
2023/08/15 02:51:19;;;;;;;14.23;9.80;;;18.50;99.90;;;;;;5049534;28;20029;-74
2023/08/15 02:53:44;;;;;;;13.65;9.90;;;18.50;99.90;;;;;;5049558;28;20523;-74
2023/08/15 02:56:10;;;;;;;16.77;9.57;;;18.60;99.90;;;;;;5050087;28;20413;-75
2023/08/15 02:58:35;;;;;;;18.20;10.65;;;18.40;99.90;;;;;;5046738;28;20462;-75
2023/08/15 03:01:02;;;;;;;14.43;10.60;;;18.20;99.90;;;;;;5035477;28;20032;-75
2023/08/15 03:03:29;;;;;;;12.80;10.50;;;18.10;99.90;;;;;;5048714;28;20045;-74
2023/08/15 03:06:00;;;;;;;15.05;10.65;;;18.40;99.90;;;;;;5046876;28;20488;-74
2023/08/15 03:08:25;;;;;;;14.93;10.70;;;18.20;99.90;;;;;;5052263;28;20048;-75
2023/08/15 03:10:51;;;;;;;12.68;9.90;;;18.50;99.90;;;;;;5049425;28;20091;-74
2023/08/15 03:13:17;;;;;;;15.57;9.95;;;18.50;99.90;;;;;;5048659;28;20047;-75
2023/08/15 03:15:56;;;;;;;16.13;10.38;;;18.20;99.90;;;;;;5049432;28;20036;-75
2023/08/15 03:18:22;;;;;;;12.85;10.27;;;18.50;99.90;;;;;;5045211;28;20041;-75
2023/08/15 03:20:55;;;;;;;12.73;9.90;;;18.30;99.90;;;;;;5052807;28;20380;-75
2023/08/15 03:23:21;;;;;;;14.45;11.10;;;18.20;99.90;;;;;;5050339;28;20056;-74
2023/08/15 03:25:57;;;;;;;16.10;10.85;;;18.20;99.90;;;;;;5024124;28;20492;-75
2023/08/15 03:28:23;;;;;;;18.83;10.23;;;18.10;99.90;;;;;;5051565;28;20461;-75
2023/08/15 03:30:49;;;;;;;18.15;10.70;;;18.20;99.90;;;;;;5044607;28;20077;-75
2023/08/15 03:33:15;;;;;;;20.75;11.52;;;18.00;99.90;;;;;;5050052;28;20040;-75
2023/08/15 03:35:45;;;;;;;13.48;10.13;;;18.30;99.90;;;;;;5049738;28;20085;-75
2023/08/15 03:38:16;;;;;;;14.02;9.75;;;18.00;99.90;;;;;;5027561;28;20048;-74
2023/08/15 03:40:43;;;;;;;13.43;9.68;;;18.30;99.90;;;;;;5054886;28;20048;-75
2023/08/15 03:43:09;;;;;;;12.30;9.55;;;18.30;99.90;;;;;;5055018;28;20032;-74
2023/08/15 03:45:34;;;;;;;16.58;9.80;;;18.00;99.90;;;;;;5048165;28;20032;-75
2023/08/15 03:48:00;;;;;;;14.38;9.32;;;18.00;99.90;;;;;;5038642;28;20039;-75
2023/08/15 03:50:25;;;;;;;13.05;9.60;;;17.90;99.90;;;;;;5052910;28;20043;-74
2023/08/15 03:52:51;;;;;;;12.38;9.20;;;18.30;99.90;;;;;;5049803;28;20033;-75
2023/08/15 03:55:16;;;;;;;15.55;9.35;;;18.00;99.90;;;;;;5052819;28;20037;-74
2023/08/15 03:57:42;;;;;;;16.00;9.90;;;17.80;99.90;;;;;;5043032;28;20067;-74
2023/08/15 04:00:09;;;;;;;12.52;9.18;;;17.90;99.90;;;;;;5045852;28;20039;-75
2023/08/15 04:02:34;;;;;;;17.52;9.13;;;18.10;99.90;;;;;;5048832;28;20129;-74
2023/08/15 04:05:00;;;;;;;14.00;9.57;;;18.10;99.90;;;;;;5074176;28;20111;-75
2023/08/15 04:07:26;;;;;;;16.45;9.77;;;18.10;99.90;;;;;;5073515;28;20399;-74
2023/08/15 04:09:51;;;;;;;12.48;9.80;;;17.90;99.90;;;;;;5055476;28;20044;-75
2023/08/15 04:12:17;;;;;;;12.52;9.35;;;17.80;99.90;;;;;;5052815;28;20044;-74
2023/08/15 04:14:42;;;;;;;12.75;9.48;;;18.30;99.90;;;;;;5053916;28;20075;-75
2023/08/15 04:17:08;;;;;;;14.75;11.00;;;18.40;99.90;;;;;;5052412;28;20041;-74
2023/08/15 04:19:33;;;;;;;16.60;11.38;;;18.00;99.90;;;;;;5048001;28;20486;-74
2023/08/15 04:21:59;;;;;;;15.10;11.43;;;18.00;99.90;;;;;;5055537;28;20465;-74
2023/08/15 04:24:25;;;;;;;15.40;12.00;;;18.00;99.90;;;;;;5064624;28;20061;-75
2023/08/15 04:26:50;;;;;;;16.63;11.77;;;18.10;99.90;;;;;;5055208;28;20078;-75
2023/08/15 04:29:16;;;;;;;16.67;13.38;;;18.70;99.90;;;;;;5046480;28;20045;-74
2023/08/15 04:31:41;;;;;;;19.10;12.95;;;18.20;99.90;;;;;;5054969;28;20086;-75
2023/08/15 04:34:07;;;;;;;16.65;13.57;;;18.50;99.90;;;;;;5073251;22;20546;-70
2023/08/15 04:36:33;;;;;;;20.02;13.10;;;18.70;99.90;;;;;;5048520;28;20041;-70
2023/08/15 04:38:58;;;;;;;16.10;13.40;;;18.10;99.90;;;;;;5031471;28;20040;-70
2023/08/15 04:41:24;;;;;;;18.55;14.13;;;18.70;99.90;;;;;;5048436;28;20029;-70
2023/08/15 04:43:50;;;;;;;17.88;14.30;;;18.70;99.90;;;;;;5027974;28;20039;-70
2023/08/15 04:46:15;;;;;;;18.27;13.20;;;18.30;99.90;;;;;;5032182;28;20029;-70
2023/08/15 04:48:41;;;;;;;16.23;12.77;;;18.50;99.90;;;;;;5023287;28;20524;-70
2023/08/15 04:51:06;;;;;;;19.15;13.63;;;18.40;99.90;;;;;;5031863;28;20560;-70
2023/08/15 04:53:32;;;;;;;20.92;13.93;;;18.70;99.90;;;;;;5010873;28;20455;-70
2023/08/15 04:55:57;;;;;;;18.38;13.55;;;18.80;99.90;;;;;;5026765;28;20034;-70
2023/08/15 04:58:23;;;;;;;17.65;13.75;;;18.20;99.90;;;;;;5020950;28;20046;-70
2023/08/15 05:00:48;;;;;;;21.95;14.30;;;18.40;99.90;;;;;;5026780;28;20056;-70
2023/08/15 05:03:14;;;;;;;16.85;13.32;;;18.60;99.90;;;;;;5025684;28;20037;-70
2023/08/15 05:05:40;;;;;;;21.42;13.38;;;18.80;99.90;;;;;;5028367;28;20041;-70
2023/08/15 05:08:08;;;;;;;19.30;12.77;;;18.80;99.90;;;;;;5027090;28;20049;-70
2023/08/15 05:10:34;;;;;;;16.63;12.93;;;19.00;99.90;;;;;;5028708;28;20057;-70
2023/08/15 05:13:00;;;;;;;16.70;13.07;;;18.90;99.90;;;;;;5028297;28;20049;-70
2023/08/15 05:15:25;;;;;;;21.10;13.85;;;18.90;99.90;;;;;;5014836;28;20128;-70
2023/08/15 05:17:52;;;;;;;18.13;14.55;;;18.70;99.90;;;;;;5026788;28;20455;-70
2023/08/15 05:20:17;;;;;;;19.05;14.52;;;18.80;99.90;;;;;;5015824;28;20117;-71
2023/08/15 05:22:44;;;;;;;20.13;14.60;;;19.00;99.90;;;;;;5017474;28;20144;-70
2023/08/15 05:25:10;;;;;;;24.60;15.75;;;18.90;99.90;;;;;;5022722;28;20069;-70
2023/08/15 05:27:36;;;;;;;21.08;14.52;;;18.50;99.90;;;;;;5029573;28;20088;-70
2023/08/15 05:30:02;;;;;;;18.58;15.18;;;18.70;99.90;;;;;;5023785;28;20600;-71
2023/08/15 05:32:28;;;;;;;17.63;13.30;;;18.80;99.90;;;;;;5026878;28;20421;-70
2023/08/15 05:34:54;;;;;;;19.20;12.13;;;18.40;99.90;;;;;;5005018;28;20049;-70
2023/08/15 05:37:19;;;;;;;15.57;10.52;;;18.50;99.90;;;;;;5032905;28;20037;-70
2023/08/15 05:39:45;;;;;;;13.65;10.43;;;18.50;99.90;;;;;;5011632;28;20025;-70
2023/08/15 05:42:17;;;;;;;14.85;10.52;;;19.00;99.90;;;;;;5028533;28;20539;-70
2023/08/15 05:44:46;;;;;;;14.95;10.43;;;18.60;99.90;;;;;;5013408;28;20130;-70
2023/08/15 05:47:12;;;;;;;13.07;9.23;;;19.00;99.90;;;;;;5032083;28;20038;-70
2023/08/15 05:49:38;;;;;;;16.00;9.73;;;18.50;99.90;;;;;;5027511;28;20037;-70
2023/08/15 05:52:03;;;;;;;15.05;9.20;;;18.60;99.90;;;;;;5027238;28;20468;-70
2023/08/15 05:54:29;;;;;;;13.05;8.82;;;18.60;99.90;;;;;;5024216;28;20068;-70
2023/08/15 05:56:55;;;;;;;10.68;7.95;;;18.50;99.90;;;;;;5024449;28;20041;-71
2023/08/15 05:59:21;;;;;;;13.20;9.13;;;18.60;99.90;;;;;;5029667;28;20189;-71
2023/08/15 06:01:47;;;;;;;11.10;8.40;;;18.60;99.90;;;;;;5021844;28;20045;-71
2023/08/15 06:04:12;;;;;;;13.95;8.35;;;19.00;99.90;;;;;;5030960;28;20067;-72
2023/08/15 06:06:38;;;;;;;12.13;9.38;;;18.50;99.90;;;;;;5031066;28;20509;-70
2023/08/15 06:09:04;;;;;;;13.93;9.43;;;18.60;99.90;;;;;;5031184;28;20424;-70
2023/08/15 06:11:30;;;;;;;15.10;9.20;;;19.00;99.90;;;;;;5030640;28;20604;-70
2023/08/15 06:13:55;;;;;;;16.77;10.15;;;18.80;99.90;;;;;;5026344;28;20108;-70
2023/08/15 06:16:21;;;;;;;15.90;9.25;;;18.60;99.90;;;;;;5026279;28;20481;-70
2023/08/15 06:18:47;;;;;;;14.90;8.80;;;18.70;99.90;;;;;;5021867;28;20114;-70
2023/08/15 06:21:12;;;;;;;15.25;9.52;;;18.70;99.90;;;;;;5006050;28;20049;-70
2023/08/15 06:23:38;;;;;;;11.20;8.55;;;18.60;99.90;;;;;;5012297;28;20512;-72
2023/08/15 06:26:03;;;;;;;14.75;9.02;;;19.20;99.90;;;;;;5024123;28;20044;-70
2023/08/15 06:28:29;;;;;;;18.88;9.80;;;19.00;99.90;;;;;;5024597;28;20034;-71
2023/08/15 06:30:54;;;;;;;13.48;8.55;;;18.80;99.90;;;;;;5025271;28;20492;-71
2023/08/15 06:33:20;;;;;;;14.27;9.27;;;19.10;99.90;;;;;;5027605;28;20042;-71
2023/08/15 06:35:46;;;;;;;15.38;8.85;;;19.30;99.90;;;;;;5026056;28;20052;-70
2023/08/15 06:38:11;;;;;;;12.20;9.02;;;19.20;99.90;;;;;;5028114;28;20042;-71
2023/08/15 06:40:37;;;;;;;13.48;8.35;;;19.30;99.90;;;;;;5028494;28;20037;-70
2023/08/15 06:43:02;;;;;;;14.73;8.95;;;19.70;99.90;;;;;;5020603;28;20112;-70
2023/08/15 06:45:28;;;;;;;16.15;8.80;;;20.00;99.90;;;;;;5026869;28;20038;-71
2023/08/15 06:47:54;;;;;;;12.98;8.27;;;20.20;99.90;;;;;;5013553;28;20048;-70
2023/08/15 06:50:19;;;;;;;10.70;7.07;;;20.20;99.90;;;;;;5023662;28;20550;-70
2023/08/15 06:52:45;;;;;;;13.80;7.53;;;20.10;99.90;;;;;;5028561;28;20029;-71
2023/08/15 06:55:11;;;;;;;11.65;7.63;;;20.00;99.90;;;;;;5006682;28;20042;-71
2023/08/15 06:57:36;;;;;;;12.02;7.20;;;19.80;99.90;;;;;;5026290;28;20042;-71
2023/08/15 07:00:06;;;;;;;10.95;7.90;;;19.90;99.90;;;;;;5009807;28;20037;-71
2023/08/15 07:02:32;;;;;;;11.98;6.90;;;20.50;99.90;;;;;;5013398;28;20034;-71
2023/08/15 07:04:57;;;;;;;10.40;7.32;;;21.10;99.90;;;;;;5028422;28;20033;-71
2023/08/15 07:07:23;;;;;;;13.13;7.03;;;20.90;99.90;;;;;;5028537;28;20087;-71
2023/08/15 07:09:49;;;;;;;8.57;6.25;;;21.10;99.90;;;;;;5023971;28;20075;-71
2023/08/15 07:12:17;;;;;;;11.40;6.72;;;21.40;99.90;;;;;;5024329;28;20140;-71
2023/08/15 07:14:45;;;;;;;12.20;5.82;;;21.10;99.90;;;;;;5028511;28;20061;-70
2023/08/15 07:17:11;;;;;;;11.07;5.13;;;21.00;99.90;;;;;;5022963;28;20561;-71
2023/08/15 07:19:37;;;;;;;11.05;5.97;;;21.30;99.90;;;;;;5029218;28;20125;-71
2023/08/15 07:22:03;;;;;;;10.43;5.53;;;21.10;99.90;;;;;;5025654;28;20387;-70
2023/08/15 07:24:29;;;;;;;8.02;4.97;;;21.40;99.90;;;;;;5011741;28;20064;-71
2023/08/15 07:26:54;;;;;;;9.85;5.03;;;22.20;99.90;;;;;;5027057;28;20038;-70
2023/08/15 07:29:20;;;;;;;12.95;5.43;;;22.10;99.90;;;;;;5024836;28;20049;-71
2023/08/15 07:31:45;;;;;;;9.57;5.22;;;22.70;99.90;;;;;;5028311;28;20049;-71
2023/08/15 07:34:11;;;;;;;9.73;5.03;;;22.70;99.90;;;;;;5025176;28;20041;-71
2023/08/15 07:36:37;;;;;;;10.45;5.30;;;22.80;99.90;;;;;;5023250;28;20034;-71
2023/08/15 07:39:03;;;;;;;11.30;5.22;;;22.90;99.90;;;;;;5024934;28;20103;-71
2023/08/15 07:41:29;;;;;;;13.50;5.47;;;23.30;99.90;;;;;;5022848;28;20044;-71
2023/08/15 07:43:55;;;;;;;13.57;5.72;;;23.40;99.90;;;;;;5029821;28;20033;-71
2023/08/15 07:46:20;;;;;;;9.65;5.15;;;23.40;99.90;;;;;;5025724;28;20040;-71
2023/08/15 07:48:46;;;;;;;12.75;5.07;;;23.50;99.90;;;;;;5025029;28;20038;-71
2023/08/15 07:51:12;;;;;;;10.75;4.72;;;23.60;99.90;;;;;;5022254;28;20034;-71
2023/08/15 07:53:37;;;;;;;10.68;4.15;;;23.80;99.90;;;;;;5024220;28;20120;-70
2023/08/15 07:56:03;;;;;;;6.65;3.70;;;23.90;99.90;;;;;;5025464;28;20038;-71
2023/08/15 07:58:29;;;;;;;7.93;3.58;;;24.00;99.90;;;;;;5028535;28;20045;-70
2023/08/15 08:00:55;;;;;;;7.22;3.15;;;24.10;99.90;;;;;;5027803;28;20038;-71
2023/08/15 08:03:20;;;;;;;9.57;3.58;;;24.00;99.90;;;;;;5026573;28;20111;-71
2023/08/15 08:05:46;;;;;;;14.05;4.22;;;23.60;99.90;;;;;;5018365;28;20409;-71
2023/08/15 08:08:15;;;;;;;13.57;3.03;;;23.40;99.90;;;;;;5024928;28;20117;-74
2023/08/15 08:10:40;;;;;;;8.10;2.92;;;23.10;99.90;;;;;;5024036;28;20096;-75
2023/08/15 08:13:09;;;;;;;6.25;2.60;;;23.30;99.90;;;;;;5024819;28;20460;-74
2023/08/15 08:15:34;;;;;;;8.48;2.67;;;22.70;99.90;;;;;;5010139;28;20037;-73
2023/08/15 08:18:00;;;;;;;6.63;2.72;;;22.70;99.90;;;;;;5022555;28;20508;-72
2023/08/15 08:20:26;;;;;;;10.80;3.08;;;22.60;99.90;;;;;;5025271;28;20049;-71
2023/08/15 08:22:52;;;;;;;7.30;3.53;;;22.40;99.90;;;;;;5009353;28;20029;-71
2023/08/15 08:25:23;;;;;;;7.40;2.58;;;22.10;99.90;;;;;;5003314;28;20099;-71
2023/08/15 08:27:49;;;;;;;7.05;2.47;;;21.70;99.90;;;;;;5022801;28;20037;-70
2023/08/15 08:30:18;;;;;;;8.02;2.58;;;21.90;99.90;;;;;;5027061;28;20061;-71
2023/08/15 08:32:44;;;;;;;6.10;2.17;;;22.00;99.90;;;;;;5016126;28;20041;-71
2023/08/15 08:35:10;;;;;;;4.47;2.15;;;22.10;99.90;;;;;;5025971;28;20631;-71
2023/08/15 08:37:36;;;;;;;6.25;1.77;;;22.30;99.90;;;;;;5023972;28;20410;-71
2023/08/15 08:40:05;;;;;;;6.55;2.17;;;22.40;99.90;;;;;;5033795;28;20041;-71
2023/08/15 08:42:31;;;;;;;9.35;2.88;;;22.90;99.90;;;;;;5028605;28;20041;-71
2023/08/15 08:44:58;;;;;;;6.72;2.25;;;23.10;99.90;;;;;;5032193;28;20037;-71
2023/08/15 08:47:26;;;;;;;9.32;2.60;;;23.40;99.90;;;;;;5024135;28;20081;-71
2023/08/15 08:49:53;;;;;;;7.75;2.30;;;23.70;99.90;;;;;;5014137;28;20050;-71
2023/08/15 08:52:19;;;;;;;5.13;2.20;;;23.80;99.90;;;;;;5032326;28;20412;-70
2023/08/15 08:54:45;;;;;;;7.35;2.20;;;24.10;99.90;;;;;;5031151;28;20045;-70
2023/08/15 08:57:11;;;;;;;10.65;2.63;;;24.20;99.90;;;;;;5027270;28;20045;-71
2023/08/15 08:59:39;;;;;;;5.90;1.83;;;24.40;99.90;;;;;;5011022;28;20067;-72
2023/08/15 09:02:10;;;;;;;5.93;1.80;;;24.70;99.90;;;;;;5027670;28;20037;-71
2023/08/15 09:04:35;;;;;;;6.90;1.88;;;24.60;99.90;;;;;;5032255;28;20104;-72
2023/08/15 09:07:01;;;;;;;9.32;2.25;;;25.00;99.90;;;;;;5024124;28;20040;-73
2023/08/15 09:09:27;;;;;;;7.03;1.60;;;25.30;99.90;;;;;;5031659;28;20033;-72
2023/08/15 09:11:52;;;;;;;6.18;2.13;;;25.60;99.90;;;;;;5025910;28;20095;-72
2023/08/15 09:14:18;;;;;;;5.25;1.67;;;25.60;99.90;;;;;;5033834;28;20042;-72
2023/08/15 09:16:48;;;;;;;4.38;1.45;;;25.80;99.90;;;;;;5033527;28;20532;-72
2023/08/15 09:19:15;;;;;;;3.58;1.45;;;25.60;99.90;;;;;;5033540;28;20038;-72
2023/08/15 09:21:41;;;;;;;4.60;1.92;;;25.80;99.90;;;;;;5015717;28;20453;-72
2023/08/15 09:24:07;;;;;;;2.05;1.25;;;25.70;99.90;;;;;;5033718;28;20037;-72
2023/08/15 09:26:34;;;;;;;5.15;1.65;;;25.70;99.90;;;;;;5033595;28;20055;-72
2023/08/15 09:29:02;;;;;;;3.67;1.55;;;25.80;99.90;;;;;;5033420;28;20088;-72
2023/08/15 09:31:28;;;;;;;5.93;1.67;;;25.80;99.90;;;;;;5033500;28;20068;-72
2023/08/15 09:33:54;;;;;;;5.10;1.80;;;26.00;99.90;;;;;;5033331;28;20045;-72
2023/08/15 09:36:22;;;;;;;5.15;1.42;;;26.00;99.90;;;;;;5015423;28;20090;-72
2023/08/15 09:38:50;;;;;;;3.95;1.30;;;26.10;99.90;;;;;;5032855;28;20412;-72
2023/08/15 09:41:17;;;;;;;5.38;1.65;;;26.10;99.90;;;;;;5033433;28;20518;-72
2023/08/15 09:43:50;;;;;;;6.00;1.67;;;26.10;99.90;;;;;;5033331;28;20041;-72
2023/08/15 09:46:17;;;;;;;3.75;1.30;;;25.90;99.90;;;;;;5015313;28;20053;-72
2023/08/15 09:48:46;;;;;;;4.25;1.33;;;25.70;99.90;;;;;;5032895;28;20033;-72
2023/08/15 09:51:14;;;;;;;8.18;1.92;;;25.40;99.90;;;;;;5033239;28;20094;-72
2023/08/15 09:53:43;;;;;;;4.72;1.30;;;24.80;99.90;;;;;;5015544;28;20060;-72
2023/08/15 09:56:09;;;;;;;5.05;1.90;;;24.50;99.90;;;;;;5015061;28;20091;-72
2023/08/15 09:58:34;;;;;;;2.10;1.27;;;24.00;99.90;;;;;;5014847;28;20081;-72
2023/08/15 10:01:03;;;;;;;4.95;1.70;;;23.70;99.90;;;;;;5032660;28;20061;-72
2023/08/15 10:03:35;;;;;;;5.55;1.35;;;23.50;99.90;;;;;;5032594;28;20038;-72
2023/08/15 10:06:03;;;;;;;4.45;1.42;;;23.40;99.90;;;;;;5032570;28;20037;-71
2023/08/15 10:08:28;;;;;;;4.95;1.40;;;23.20;99.90;;;;;;5032711;28;20046;-72
2023/08/15 10:10:58;;;;;;;5.57;1.40;;;23.10;99.90;;;;;;5032475;28;20463;-72
2023/08/15 10:13:32;;;;;;;3.85;1.73;;;23.00;99.90;;;;;;5032545;28;20049;-72
2023/08/15 10:15:59;;;;;;;5.53;1.70;;;23.10;99.90;;;;;;5014524;28;20041;-71
2023/08/15 10:18:25;;;;;;;3.92;1.55;;;23.50;99.90;;;;;;5014509;28;20100;-71
2023/08/15 10:20:52;;;;;;;4.80;1.17;;;23.50;99.90;;;;;;5014894;28;20533;-72
2023/08/15 10:23:29;;;;;;;3.70;1.00;;;23.40;99.90;;;;;;5032530;28;20073;-72
2023/08/15 10:25:55;;;;;;;5.15;1.70;;;23.50;99.90;;;;;;5032179;28;20041;-72
2023/08/15 10:28:21;;;;;;;6.93;1.60;;;23.20;99.90;;;;;;5032071;28;20412;-71
2023/08/15 10:30:47;;;;;;;6.75;2.10;;;23.20;99.90;;;;;;5032355;28;20038;-72
2023/08/15 10:33:16;;;;;;;5.70;1.50;;;23.20;99.90;;;;;;5014477;28;20045;-72
2023/08/15 10:35:54;;;;;;;6.65;1.65;;;23.20;99.90;;;;;;5032256;28;20045;-72
2023/08/15 10:38:22;;;;;;;4.32;1.67;;;23.20;99.90;;;;;;5032089;28;20408;-72
2023/08/15 10:40:50;;;;;;;8.85;2.30;;;23.30;99.90;;;;;;5032137;28;20037;-73
2023/08/15 10:43:16;;;;;;;6.10;1.63;;;23.20;99.90;;;;;;5014803;28;20049;-72
2023/08/15 10:45:52;;;;;;;6.03;2.15;;;23.20;99.90;;;;;;5032108;28;20034;-72
2023/08/15 10:48:43;;;;;;;3.45;1.27;;;23.20;99.90;;;;;;5014345;28;20045;-72
2023/08/15 10:51:20;;;;;;;6.90;1.88;;;23.30;99.90;;;;;;5031900;28;20046;-73
2023/08/15 10:53:50;;;;;;;5.15;1.40;;;23.40;99.90;;;;;;5032167;28;20081;-73
2023/08/15 10:56:22;;;;;;;4.53;1.67;;;23.50;99.90;;;;;;5014240;28;20041;-72
2023/08/15 10:58:48;;;;;;;6.00;1.90;;;23.80;99.90;;;;;;5014429;28;20048;-72
2023/08/15 11:01:22;;;;;;;5.95;1.67;;;24.00;99.90;;;;;;5031689;28;20041;-72
2023/08/15 11:03:50;;;;;;;4.93;1.58;;;23.80;99.90;;;;;;5032109;28;20036;-73
2023/08/15 11:06:16;;;;;;;5.10;1.55;;;23.80;99.90;;;;;;5031828;28;20045;-73
2023/08/15 11:08:49;;;;;;;4.47;1.48;;;23.80;99.90;;;;;;5031527;28;20528;-72
2023/08/15 11:11:16;;;;;;;2.97;1.30;;;23.80;99.90;;;;;;5031993;28;20041;-72
2023/08/15 11:13:52;;;;;;;4.90;1.95;;;23.70;99.90;;;;;;5014084;28;20041;-72
2023/08/15 11:16:20;;;;;;;5.38;1.52;;;23.70;99.90;;;;;;5031528;28;20077;-72
2023/08/15 11:18:46;;;;;;;5.32;1.50;;;23.80;99.90;;;;;;5031517;28;20040;-72
2023/08/15 11:21:13;;;;;;;2.92;1.45;;;23.80;99.90;;;;;;5014192;28;20401;-72
2023/08/15 11:23:40;;;;;;;5.28;1.30;;;24.00;99.90;;;;;;5031639;28;20092;-72
2023/08/15 11:26:08;;;;;;;2.55;1.23;;;24.10;99.90;;;;;;5031216;28;20505;-73
2023/08/15 11:28:34;;;;;;;3.67;1.08;;;24.10;99.90;;;;;;5031161;28;20092;-72
2023/08/15 11:31:02;;;;;;;7.38;1.45;;;24.10;99.90;;;;;;5031699;28;20045;-72
2023/08/15 11:33:31;;;;;;;6.25;1.58;;;24.10;99.90;;;;;;5031337;28;20049;-72
2023/08/15 11:36:08;;;;;;;7.30;1.73;;;24.00;99.90;;;;;;5031063;28;20044;-72
2023/08/15 11:38:34;;;;;;;4.60;1.60;;;24.00;99.90;;;;;;5031205;28;20045;-72
2023/08/15 11:41:01;;;;;;;4.72;1.42;;;24.10;99.90;;;;;;5031356;28;20037;-72
2023/08/15 11:43:28;;;;;;;3.13;1.50;;;24.00;99.90;;;;;;5031284;28;20073;-72
2023/08/15 11:45:54;;;;;;;2.70;1.80;;;24.10;99.90;;;;;;5031413;28;20111;-72
2023/08/15 11:48:21;;;;;;;3.88;1.85;;;24.00;99.90;;;;;;5031443;28;20041;-72
2023/08/15 11:50:46;;;;;;;6.28;2.03;;;23.80;99.90;;;;;;5031389;28;20096;-72
2023/08/15 11:53:16;;;;;;;5.95;2.15;;;23.70;99.90;;;;;;5031237;28;20676;-73
2023/08/15 11:55:43;;;;;;;6.60;1.80;;;23.80;99.90;;;;;;5030861;28;20073;-72
2023/08/15 11:58:22;;;;;;;4.55;1.73;;;23.70;99.90;;;;;;5013249;28;20439;-72
2023/08/15 12:00:48;;;;;;;5.20;2.42;;;23.80;99.90;;;;;;5031310;28;20497;-73
2023/08/15 12:03:14;;;;;;;6.90;2.00;;;23.80;99.90;;;;;;5017376;28;20060;-72
2023/08/15 12:05:44;;;;;;;6.22;2.65;;;23.70;99.90;;;;;;5035026;28;20451;-72
2023/08/15 12:08:12;;;;;;;6.53;2.03;;;23.90;99.90;;;;;;5034679;28;20059;-72
2023/08/15 12:10:38;;;;;;;4.00;1.88;;;23.90;99.90;;;;;;5035101;28;20073;-72
2023/08/15 12:13:04;;;;;;;4.57;1.73;;;23.80;99.90;;;;;;5035017;28;20080;-72
2023/08/15 12:15:29;;;;;;;5.45;1.80;;;23.70;99.90;;;;;;5034535;28;20083;-72
2023/08/15 12:17:55;;;;;;;3.53;2.10;;;23.80;99.90;;;;;;5034578;28;20044;-72
2023/08/15 12:20:20;;;;;;;4.82;2.42;;;23.90;99.90;;;;;;5034817;28;20041;-72
2023/08/15 12:22:46;;;;;;;4.78;2.00;;;23.70;99.90;;;;;;5034595;28;20030;-72
2023/08/15 12:25:11;;;;;;;5.18;2.42;;;23.80;99.90;;;;;;5034552;28;20042;-72
2023/08/15 12:27:37;;;;;;;3.67;2.38;;;23.80;99.90;;;;;;5034492;28;20045;-72
2023/08/15 12:30:04;;;;;;;7.25;2.10;;;23.90;99.90;;;;;;5034704;28;20048;-72
2023/08/15 12:32:30;;;;;;;4.85;1.77;;;24.00;99.90;;;;;;5034640;28;20037;-72
2023/08/15 12:34:55;;;;;;;4.22;1.45;;;24.00;99.90;;;;;;5034344;28;20393;-72
2023/08/15 12:37:22;;;;;;;4.30;1.70;;;24.00;99.90;;;;;;5034192;28;20037;-72